createdAt,value
2019-01-29T00:02:26.565Z,61.20
2019-01-29T00:05:02.958Z,59.80
2019-01-29T00:07:39.592Z,59.60
2019-01-29T00:10:16.654Z,60.00
2019-01-29T00:12:53.878Z,59.40
2019-01-29T00:15:34.367Z,59.40
2019-01-29T00:18:12.968Z,59.70
2019-01-29T00:20:50.358Z,59.80
2019-01-29T00:23:27.619Z,59.40
2019-01-29T00:26:05.315Z,59.60
2019-01-29T00:28:42.299Z,59.70
2019-01-29T00:31:21.969Z,60.30
2019-01-29T00:34:01.833Z,59.50
2019-01-29T00:36:39.439Z,59.40
2019-01-29T00:39:16.465Z,65.30
2019-01-29T00:41:53.655Z,62.90
2019-01-29T00:44:31.207Z,63.40
2019-01-29T00:47:08.951Z,60.50
2019-01-29T00:49:46.307Z,59.50
2019-01-29T00:52:24.463Z,60.30
2019-01-29T00:55:02.619Z,59.70
2019-01-29T00:57:39.577Z,61.00
2019-01-29T01:00:22.934Z,59.40
2019-01-29T01:03:00.275Z,59.30
2019-01-29T01:05:40.171Z,59.70
2019-01-29T01:08:18.211Z,60.50
2019-01-29T01:10:55.684Z,65.60
2019-01-29T01:13:33.052Z,62.00
2019-01-29T01:16:11.197Z,59.70
2019-01-29T01:18:48.123Z,62.40
2019-01-29T01:21:26.855Z,61.10
2019-01-29T01:24:04.064Z,59.70
2019-01-29T01:26:41.326Z,59.10
2019-01-29T01:29:18.788Z,58.90
2019-01-29T01:31:55.898Z,63.10
2019-01-29T01:34:37.453Z,64.90
2019-01-29T01:37:16.587Z,62.80
2019-01-29T01:39:54.042Z,63.30
2019-01-29T01:42:31.621Z,61.40
2019-01-29T01:45:12.164Z,59.80
2019-01-29T01:47:53.162Z,59.00
2019-01-29T01:50:33.203Z,58.90
2019-01-29T01:57:12.449Z,59.20
2019-01-29T02:00:23.981Z,58.70
2019-01-29T02:10:59.135Z,60.10
2019-01-29T02:14:28.058Z,60.00
2019-01-29T02:17:16.506Z,62.70
2019-01-29T02:27:03.114Z,58.50
2019-01-29T02:33:30.317Z,58.50
2019-01-29T02:36:19.944Z,58.20
2019-01-29T02:42:47.122Z,58.40
2019-01-29T02:55:58.438Z,58.00
2019-01-29T03:10:11.060Z,59.10
2019-01-29T03:12:59.704Z,58.50
2019-01-29T03:19:38.736Z,57.80
2019-01-29T03:29:34.256Z,57.90
2019-01-29T03:36:47.977Z,58.00
2019-01-29T03:40:27.512Z,58.40
2019-01-29T03:47:35.281Z,56.90
2019-01-29T03:50:29.111Z,57.10
2019-01-29T03:53:45.850Z,56.90
2019-01-29T03:56:25.633Z,57.20
2019-01-29T03:59:04.109Z,57.70
2019-01-29T04:01:42.531Z,62.30
2019-01-29T04:04:23.894Z,60.60
2019-01-29T04:07:02.042Z,59.90
2019-01-29T04:09:42.720Z,60.50
2019-01-29T04:12:22.818Z,58.40
2019-01-29T04:15:01.655Z,56.50
2019-01-29T04:17:42.725Z,57.10
2019-01-29T04:20:24.613Z,57.80
2019-01-29T04:23:06.308Z,56.30
2019-01-29T04:25:44.655Z,55.70
2019-01-29T04:28:29.924Z,54.90
2019-01-29T04:31:06.832Z,55.20
2019-01-29T04:33:44.470Z,55.40
2019-01-29T04:36:40.400Z,56.60
2019-01-29T04:39:28.329Z,55.40
2019-01-29T04:42:10.140Z,54.30
2019-01-29T04:44:48.530Z,53.80
2019-01-29T04:47:29.171Z,54.30
2019-01-29T04:50:07.141Z,54.30
2019-01-29T04:52:48.776Z,55.70
2019-01-29T04:55:31.201Z,53.80
2019-01-29T04:58:13.338Z,55.10
2019-01-29T05:00:57.018Z,55.70
2019-01-29T05:03:41.663Z,55.80
2019-01-29T05:06:22.744Z,55.50
2019-01-29T05:09:03.369Z,54.70
2019-01-29T05:11:43.765Z,54.40
2019-01-29T05:14:23.024Z,53.60
2019-01-29T05:17:05.724Z,52.70
2019-01-29T05:19:43.833Z,54.20
2019-01-29T05:22:23.539Z,56.60
2019-01-29T05:25:14.529Z,55.60
2019-01-29T05:27:57.825Z,55.20
2019-01-29T05:30:36.112Z,52.80
2019-01-29T05:33:15.185Z,52.10
2019-01-29T05:35:58.949Z,52.10
2019-01-29T05:38:40.517Z,52.10
2019-01-29T05:41:21.732Z,52.00
2019-01-29T05:44:00.088Z,51.90
2019-01-29T05:46:44.014Z,51.60
2019-01-29T05:49:23.682Z,52.10
2019-01-29T05:52:14.966Z,51.20
2019-01-29T05:54:55.631Z,52.80
2019-01-29T05:57:39.855Z,51.90
2019-01-29T06:00:25.722Z,51.50
2019-01-29T06:03:21.743Z,51.20
2019-01-29T06:06:04.315Z,51.10
2019-01-29T06:08:47.910Z,53.30
2019-01-29T06:11:42.480Z,51.10
2019-01-29T06:14:19.863Z,52.80
2019-01-29T06:17:07.007Z,53.70
2019-01-29T06:19:51.651Z,53.10
2019-01-29T06:22:35.065Z,52.50
2019-01-29T06:25:18.911Z,52.00
2019-01-29T06:27:59.168Z,52.40
2019-01-29T06:30:40.114Z,53.60
2019-01-29T06:33:18.769Z,51.20
2019-01-29T06:36:01.694Z,51.80
2019-01-29T06:38:56.551Z,51.80
2019-01-29T06:41:39.176Z,52.20
2019-01-29T06:44:25.090Z,51.40
2019-01-29T06:47:04.389Z,50.30
2019-01-29T06:49:45.175Z,51.50
2019-01-29T06:52:27.014Z,51.00
2019-01-29T06:55:10.817Z,50.10
2019-01-29T06:57:55.608Z,50.50
2019-01-29T07:00:34.076Z,52.40
2019-01-29T07:03:20.485Z,52.00
2019-01-29T07:06:07.891Z,51.30
2019-01-29T07:08:47.546Z,51.70
2019-01-29T07:11:30.785Z,50.80
2019-01-29T07:14:09.952Z,50.70
2019-01-29T07:16:58.430Z,50.20
2019-01-29T07:19:42.879Z,49.90
2019-01-29T07:22:22.649Z,52.70
2019-01-29T07:25:00.508Z,50.80
2019-01-29T07:27:44.295Z,50.10
2019-01-29T07:30:25.247Z,50.40
2019-01-29T07:33:11.517Z,50.20
2019-01-29T07:35:55.960Z,51.00
2019-01-29T07:38:39.300Z,50.80
2019-01-29T07:41:32.629Z,51.10
2019-01-29T07:44:22.351Z,50.20
2019-01-29T07:47:03.140Z,50.20
2019-01-29T07:49:44.394Z,50.10
2019-01-29T07:52:24.181Z,51.70
2019-01-29T07:55:03.543Z,50.90
2019-01-29T07:57:50.708Z,50.70
2019-01-29T08:00:35.008Z,50.00
2019-01-29T08:03:17.705Z,50.30
2019-01-29T08:05:59.071Z,51.20
2019-01-29T08:08:38.934Z,50.20
2019-01-29T08:11:19.709Z,50.40
2019-01-29T08:14:00.998Z,50.70
2019-01-29T08:16:41.184Z,50.30
2019-01-29T08:19:33.214Z,50.10
2019-01-29T08:22:14.990Z,50.20
2019-01-29T08:25:01.220Z,52.00
2019-01-29T08:27:50.561Z,51.50
2019-01-29T08:30:33.048Z,51.00
2019-01-29T08:33:15.361Z,51.10
2019-01-29T08:35:52.915Z,51.20
2019-01-29T08:38:30.530Z,51.40
2019-01-29T08:41:09.853Z,52.00
2019-01-29T08:43:50.789Z,52.80
2019-01-29T08:46:32.312Z,52.70
2019-01-29T08:49:15.320Z,51.90
2019-01-29T08:52:03.944Z,50.80
2019-01-29T08:54:46.432Z,52.50
2019-01-29T08:57:25.443Z,51.60
2019-01-29T09:00:06.306Z,53.10
2019-01-29T09:02:43.813Z,52.50
2019-01-29T09:05:25.816Z,51.70
2019-01-29T09:08:03.592Z,51.00
2019-01-29T09:10:41.321Z,50.30
2019-01-29T09:13:19.942Z,50.30
2019-01-29T09:16:00.632Z,50.60
2019-01-29T09:18:42.284Z,50.40
2019-01-29T09:21:23.703Z,50.50
2019-01-29T09:24:19.548Z,50.40
2019-01-29T09:26:57.449Z,50.50
2019-01-29T09:29:36.347Z,51.70
2019-01-29T09:32:16.705Z,50.80
2019-01-29T09:34:54.215Z,50.70
2019-01-29T09:37:34.961Z,51.20
2019-01-29T09:40:20.545Z,51.70
2019-01-29T09:43:04.524Z,51.30
2019-01-29T09:45:45.491Z,51.40
2019-01-29T09:48:26.390Z,51.60
2019-01-29T09:51:04.174Z,50.70
2019-01-29T09:53:44.928Z,50.70
2019-01-29T09:56:23.971Z,52.40
2019-01-29T09:59:04.219Z,51.80
2019-01-29T10:01:42.622Z,55.10
2019-01-29T10:04:20.235Z,51.70
2019-01-29T10:07:17.618Z,51.60
2019-01-29T10:09:57.748Z,51.20
2019-01-29T10:12:34.792Z,51.30
2019-01-29T10:15:16.899Z,51.60
2019-01-29T10:17:57.966Z,51.20
2019-01-29T10:20:37.857Z,51.10
2019-01-29T10:23:16.938Z,52.60
2019-01-29T10:26:14.674Z,51.20
2019-01-29T10:28:55.504Z,51.00
2019-01-29T10:31:36.309Z,52.20
2019-01-29T10:34:16.105Z,51.10
2019-01-29T10:36:53.922Z,50.80
2019-01-29T10:39:33.259Z,51.10
2019-01-29T10:42:10.374Z,53.30
2019-01-29T10:44:50.420Z,52.40
2019-01-29T10:47:28.815Z,52.10
2019-01-29T10:50:07.156Z,51.00
2019-01-29T10:52:52.644Z,51.30
2019-01-29T10:55:31.741Z,50.80
2019-01-29T10:58:13.200Z,51.00
2019-01-29T11:00:53.942Z,51.00
2019-01-29T11:03:35.488Z,51.00
2019-01-29T11:06:12.964Z,51.40
2019-01-29T11:08:52.994Z,51.10
2019-01-29T11:11:34.461Z,51.30
2019-01-29T11:14:13.153Z,51.30
2019-01-29T11:16:53.583Z,51.90
2019-01-29T11:19:35.148Z,51.10
2019-01-29T11:22:27.113Z,51.20
2019-01-29T11:25:11.152Z,51.20
2019-01-29T11:27:49.873Z,51.10
2019-01-29T11:30:29.661Z,51.10
2019-01-29T11:33:13.719Z,51.00
2019-01-29T11:36:03.036Z,51.10
2019-01-29T11:38:43.352Z,51.40
2019-01-29T11:41:43.207Z,51.40
2019-01-29T11:44:22.936Z,51.20
2019-01-29T11:47:06.567Z,51.50
2019-01-29T11:49:46.769Z,51.60
2019-01-29T11:52:26.189Z,51.40
2019-01-29T11:55:13.739Z,51.30
2019-01-29T11:58:00.703Z,51.20
2019-01-29T12:00:58.642Z,51.20
2019-01-29T12:03:52.061Z,51.30
2019-01-29T12:06:38.700Z,51.30
2019-01-29T12:09:25.265Z,51.10
2019-01-29T12:12:17.072Z,51.10
2019-01-29T12:14:56.800Z,50.90
2019-01-29T12:17:43.622Z,51.30
2019-01-29T12:20:46.594Z,51.60
2019-01-29T12:24:05.576Z,51.20
2019-01-29T12:27:02.164Z,51.20
2019-01-29T12:29:42.863Z,51.50
2019-01-29T12:32:25.910Z,51.30
2019-01-29T12:35:06.630Z,51.30
2019-01-29T12:38:07.901Z,51.00
2019-01-29T12:40:53.504Z,50.80
2019-01-29T12:43:37.105Z,51.00
2019-01-29T12:46:32.872Z,51.10
2019-01-29T12:49:18.884Z,51.20
2019-01-29T12:52:23.170Z,51.50
2019-01-29T12:55:02.758Z,51.80
2019-01-29T12:57:55.872Z,51.00
2019-01-29T13:01:01.953Z,51.30
2019-01-29T13:03:47.874Z,51.20
2019-01-29T13:06:31.910Z,51.20
2019-01-29T13:09:16.851Z,51.20
2019-01-29T13:12:22.242Z,51.20
2019-01-29T13:15:23.357Z,51.10
2019-01-29T13:18:20.054Z,51.20
2019-01-29T13:21:22.358Z,51.30
2019-01-29T13:24:09.600Z,51.60
2019-01-29T13:26:57.636Z,51.90
2019-01-29T13:29:44.777Z,52.00
2019-01-29T13:32:41.282Z,52.40
2019-01-29T13:35:28.402Z,52.70
2019-01-29T13:38:19.949Z,52.90
2019-01-29T13:41:21.659Z,53.00
2019-01-29T13:44:31.524Z,53.00
2019-01-29T13:47:32.008Z,53.10
2019-01-29T13:50:41.402Z,53.20
2019-01-29T13:56:54.482Z,53.50
2019-01-29T14:02:52.004Z,53.60
2019-01-29T14:05:44.898Z,53.60
2019-01-29T14:08:49.552Z,54.10
2019-01-29T14:11:34.229Z,54.10
2019-01-29T14:14:36.391Z,54.00
2019-01-29T14:17:40.491Z,54.10
2019-01-29T14:20:42.523Z,54.10
2019-01-29T14:24:02.601Z,54.30
2019-01-29T14:34:04.595Z,54.30
2019-01-29T14:37:33.175Z,54.20
2019-01-29T14:40:45.985Z,54.30
2019-01-29T14:43:54.451Z,54.50
2019-01-29T14:46:50.948Z,54.50
2019-01-29T14:49:38.725Z,54.70
2019-01-29T14:52:40.062Z,54.90
2019-01-29T14:55:39.125Z,54.60
2019-01-29T14:58:38.393Z,54.70
2019-01-29T15:01:51.066Z,54.50
2019-01-29T15:04:48.836Z,54.50
2019-01-29T15:07:44.977Z,54.80
2019-01-29T15:10:40.297Z,54.80
2019-01-29T15:13:39.886Z,54.80
2019-01-29T15:16:43.338Z,54.80
2019-01-29T15:20:02.718Z,55.00
2019-01-29T15:23:27.052Z,54.90
2019-01-29T15:26:32.196Z,54.80
2019-01-29T15:29:17.511Z,54.80
2019-01-29T15:32:03.460Z,54.60
2019-01-29T15:34:48.762Z,54.70
2019-01-29T15:38:08.197Z,54.60
2019-01-29T15:41:01.890Z,54.90
2019-01-29T15:43:55.040Z,54.60
2019-01-29T15:46:57.831Z,54.80
2019-01-29T15:53:34.454Z,54.10
2019-01-29T15:56:52.174Z,54.20
2019-01-29T15:59:46.266Z,54.10
2019-01-29T16:03:02.924Z,54.10
2019-01-29T16:06:20.584Z,54.10
2019-01-29T16:09:15.091Z,54.20
2019-01-29T16:12:08.175Z,54.20
2019-01-29T16:14:53.505Z,54.20
2019-01-29T16:17:34.154Z,54.30
2019-01-29T16:20:45.057Z,54.50
2019-01-29T16:23:45.511Z,54.50
2019-01-29T16:26:47.416Z,54.60
2019-01-29T16:29:32.520Z,54.60
2019-01-29T16:32:17.685Z,54.70
2019-01-29T16:35:06.475Z,54.70
2019-01-29T16:37:47.691Z,54.80
2019-01-29T16:41:00.121Z,54.50
2019-01-29T16:43:40.668Z,54.50
2019-01-29T16:46:28.297Z,54.80
2019-01-29T16:49:15.975Z,54.80
2019-01-29T16:52:01.588Z,54.50
2019-01-29T16:55:04.781Z,54.40
2019-01-29T16:57:42.969Z,54.50
2019-01-29T17:00:40.668Z,54.50
2019-01-29T17:03:21.314Z,54.10
2019-01-29T17:06:17.514Z,54.00
2019-01-29T17:08:59.375Z,53.90
2019-01-29T17:11:38.018Z,54.10
2019-01-29T17:14:15.263Z,54.20
2019-01-29T17:16:58.033Z,54.30
2019-01-29T17:19:43.982Z,54.20
2019-01-29T17:22:26.627Z,54.10
2019-01-29T17:25:11.610Z,54.00
2019-01-29T17:27:56.026Z,54.20
2019-01-29T17:30:39.383Z,54.20
2019-01-29T17:33:21.118Z,54.40
2019-01-29T17:36:03.384Z,54.50
2019-01-29T17:38:44.734Z,54.50
2019-01-29T17:41:22.841Z,54.50
2019-01-29T17:44:04.798Z,54.50
2019-01-29T17:46:44.397Z,54.40
2019-01-29T17:49:22.572Z,54.30
2019-01-29T17:52:00.706Z,54.90
2019-01-29T17:54:41.375Z,54.50
2019-01-29T17:57:18.642Z,54.30
2019-01-29T17:59:58.247Z,54.10
2019-01-29T18:02:37.797Z,54.10
2019-01-29T18:05:19.893Z,54.20
2019-01-29T18:08:00.564Z,54.00
2019-01-29T18:10:40.425Z,54.20
2019-01-29T18:13:18.522Z,54.40
2019-01-29T18:15:57.419Z,54.00
2019-01-29T18:18:36.957Z,54.00
2019-01-29T18:21:15.486Z,54.10
2019-01-29T18:23:55.206Z,53.80
2019-01-29T18:26:34.241Z,53.90
2019-01-29T18:29:13.820Z,53.80
2019-01-29T18:31:52.817Z,53.90
2019-01-29T18:34:31.736Z,54.30
2019-01-29T18:37:09.452Z,53.90
2019-01-29T18:39:53.418Z,54.00
2019-01-29T18:42:31.317Z,54.30
2019-01-29T18:45:10.617Z,54.20
2019-01-29T18:47:48.555Z,54.20
2019-01-29T18:50:27.935Z,54.40
2019-01-29T18:53:07.607Z,54.60
2019-01-29T18:55:48.561Z,54.80
2019-01-29T18:58:26.461Z,54.60
2019-01-29T19:01:04.914Z,54.70
2019-01-29T19:03:43.142Z,54.80
2019-01-29T19:06:22.895Z,54.70
2019-01-29T19:09:01.735Z,54.70
2019-01-29T19:11:45.663Z,54.70
2019-01-29T19:14:24.292Z,54.80
2019-01-29T19:17:01.935Z,54.80
2019-01-29T19:19:42.827Z,54.90
2019-01-29T19:22:22.775Z,54.70
2019-01-29T19:25:02.525Z,54.90
2019-01-29T19:27:40.523Z,55.00
2019-01-29T19:30:27.106Z,55.00
2019-01-29T19:33:04.370Z,55.00
2019-01-29T19:35:42.153Z,55.20
2019-01-29T19:38:20.311Z,55.30
2019-01-29T19:41:01.946Z,55.20
2019-01-29T19:43:41.818Z,55.00
2019-01-29T19:46:20.654Z,55.20
2019-01-29T19:48:58.553Z,55.20
2019-01-29T19:51:37.992Z,55.40
2019-01-29T19:54:16.429Z,55.40
2019-01-29T19:56:54.676Z,55.10
2019-01-29T19:59:32.057Z,55.80
2019-01-29T20:02:10.071Z,55.40
2019-01-29T20:04:48.066Z,55.50
2019-01-29T20:07:26.423Z,55.70
2019-01-29T20:10:06.923Z,55.70
2019-01-29T20:12:45.677Z,55.80
2019-01-29T20:15:24.112Z,55.70
2019-01-29T20:18:03.298Z,55.70
2019-01-29T20:20:42.984Z,55.80
2019-01-29T20:23:21.483Z,55.80
2019-01-29T20:25:59.194Z,55.90
2019-01-29T20:28:42.245Z,56.00
2019-01-29T20:31:16.483Z,56.10
2019-01-29T20:33:54.673Z,56.10
2019-01-29T20:36:32.351Z,56.00
2019-01-29T20:39:12.457Z,56.70
2019-01-29T20:41:51.871Z,56.00
2019-01-29T20:44:32.154Z,56.00
2019-01-29T20:47:10.064Z,56.10
2019-01-29T20:49:47.791Z,56.20
2019-01-29T20:52:27.225Z,56.20
2019-01-29T20:55:04.862Z,56.30
2019-01-29T20:57:42.402Z,56.20
2019-01-29T21:00:23.273Z,56.10
2019-01-29T21:03:01.414Z,56.10
2019-01-29T21:05:39.113Z,56.40
2019-01-29T21:08:16.967Z,56.20
2019-01-29T21:10:56.502Z,56.30
2019-01-29T21:13:34.379Z,56.50
2019-01-29T21:16:12.094Z,56.70
2019-01-29T21:18:52.367Z,56.50
2019-01-29T21:21:30.500Z,56.50
2019-01-29T21:24:09.111Z,56.50
2019-01-29T21:26:48.740Z,56.80
2019-01-29T21:29:28.378Z,56.80
2019-01-29T21:32:08.602Z,56.90
2019-01-29T21:34:46.771Z,56.90
2019-01-29T21:37:24.317Z,57.10
2019-01-29T21:40:02.762Z,57.10
2019-01-29T21:42:42.284Z,57.20
2019-01-29T21:45:20.728Z,57.20
2019-01-29T21:47:58.993Z,57.60
2019-01-29T21:50:38.326Z,57.50
2019-01-29T21:53:16.466Z,57.60
2019-01-29T21:55:56.318Z,57.40
2019-01-29T21:58:34.142Z,57.50
2019-01-29T22:01:11.987Z,57.70
2019-01-29T22:03:51.450Z,57.70
2019-01-29T22:06:29.967Z,58.00
2019-01-29T22:09:09.115Z,58.10
2019-01-29T22:11:46.997Z,58.30
2019-01-29T22:14:24.909Z,58.30
2019-01-29T22:17:03.368Z,58.40
2019-01-29T22:19:41.622Z,58.50
2019-01-29T22:22:20.914Z,58.60
2019-01-29T22:24:58.972Z,58.50
2019-01-29T22:27:38.726Z,58.80
2019-01-29T22:30:30.143Z,58.90
2019-01-29T22:33:09.666Z,58.90
2019-01-29T22:35:47.514Z,59.00
2019-01-29T22:38:25.558Z,58.90
2019-01-29T22:41:07.660Z,59.00
2019-01-29T22:43:46.603Z,59.00
2019-01-29T22:46:25.094Z,59.00
2019-01-29T22:49:03.153Z,58.90
2019-01-29T22:51:41.040Z,59.10
2019-01-29T22:54:18.782Z,59.30
2019-01-29T22:56:56.024Z,59.40
2019-01-29T22:59:33.756Z,59.40
2019-01-29T23:02:12.645Z,59.50
2019-01-29T23:04:52.953Z,59.50
2019-01-29T23:07:42.721Z,59.90
2019-01-29T23:10:22.452Z,59.90
2019-01-29T23:13:06.380Z,59.70
2019-01-29T23:15:47.671Z,61.50
2019-01-29T23:18:25.861Z,61.50
2019-01-29T23:21:03.737Z,60.00
2019-01-29T23:23:41.317Z,62.20
2019-01-29T23:26:20.671Z,60.70
2019-01-29T23:28:58.744Z,59.70
2019-01-29T23:31:36.312Z,59.70
2019-01-29T23:34:17.617Z,60.10
2019-01-29T23:36:55.811Z,61.80
2019-01-29T23:39:36.247Z,60.40
2019-01-29T23:42:14.083Z,62.00
2019-01-29T23:44:51.696Z,63.30
2019-01-29T23:47:29.774Z,60.80
2019-01-29T23:50:10.431Z,59.70
2019-01-29T23:52:53.209Z,60.40
2019-01-29T23:55:31.004Z,60.00
2019-01-29T23:58:09.909Z,60.90
